createdAt,value
2019-02-12T00:01:12.432Z,3.65
2019-02-12T00:06:14.133Z,3.66
2019-02-12T00:11:15.819Z,3.72
2019-02-12T00:16:17.505Z,3.72
2019-02-12T00:21:19.069Z,3.70
2019-02-12T00:26:20.758Z,3.70
2019-02-12T00:31:22.336Z,3.72
2019-02-12T00:36:23.928Z,3.75
2019-02-12T00:41:25.501Z,3.75
2019-02-12T00:46:27.181Z,3.75
2019-02-12T00:51:28.746Z,3.76
2019-02-12T00:56:30.318Z,3.81
2019-02-12T01:01:32.020Z,3.84
2019-02-12T01:06:33.594Z,3.83
2019-02-12T01:11:35.164Z,3.85
2019-02-12T01:16:36.857Z,3.85
2019-02-12T01:21:38.459Z,3.87
2019-02-12T01:26:41.166Z,3.85
2019-02-12T01:31:42.785Z,3.58
2019-02-12T01:36:44.355Z,3.53
2019-02-12T01:41:45.932Z,3.59
2019-02-12T01:46:47.605Z,3.64
2019-02-12T01:51:49.267Z,3.66
2019-02-12T01:56:50.848Z,3.62
2019-02-12T02:01:52.454Z,3.56
2019-02-12T02:06:54.059Z,3.56
2019-02-12T02:11:55.647Z,3.56
2019-02-12T02:16:57.242Z,3.54
2019-02-12T02:21:58.858Z,3.44
2019-02-12T02:27:00.561Z,3.40
2019-02-12T02:32:02.141Z,3.36
2019-02-12T02:37:03.718Z,3.18
2019-02-12T02:42:05.432Z,3.06
2019-02-12T02:47:06.998Z,3.03
2019-02-12T02:52:08.564Z,3.07
2019-02-12T02:57:10.145Z,3.11
2019-02-12T03:02:11.722Z,3.20
2019-02-12T03:07:13.309Z,3.25
2019-02-12T03:12:14.847Z,3.31
2019-02-12T03:17:16.432Z,3.38
2019-02-12T03:22:18.009Z,3.45
2019-02-12T03:27:19.597Z,3.50
2019-02-12T03:32:21.508Z,3.56
2019-02-12T03:37:23.065Z,3.59
2019-02-12T03:42:24.633Z,3.61
2019-02-12T03:47:26.192Z,3.59
2019-02-12T03:52:27.765Z,3.59
2019-02-12T03:57:29.353Z,3.59
2019-02-12T04:02:31.047Z,3.62
2019-02-12T04:07:32.645Z,3.60
2019-02-12T04:12:34.339Z,3.54
2019-02-12T04:17:35.904Z,3.46
2019-02-12T04:22:37.480Z,3.42
2019-02-12T04:27:39.237Z,3.42
2019-02-12T04:32:40.804Z,3.40
2019-02-12T04:37:42.399Z,3.37
2019-02-12T04:42:43.956Z,3.39
2019-02-12T04:47:45.532Z,3.39
2019-02-12T04:52:47.123Z,3.37
2019-02-12T04:57:48.696Z,3.41
2019-02-12T05:02:50.305Z,3.43
2019-02-12T05:07:51.876Z,3.47
2019-02-12T05:12:53.428Z,3.51
2019-02-12T05:17:55.010Z,3.56
2019-02-12T05:22:56.583Z,3.58
2019-02-12T05:27:58.181Z,3.62
2019-02-12T05:32:59.868Z,3.63
2019-02-12T05:38:01.457Z,3.62
2019-02-12T05:43:03.114Z,3.64
2019-02-12T05:48:04.679Z,3.66
2019-02-12T05:53:06.796Z,3.65
2019-02-12T05:58:08.462Z,3.67
2019-02-12T06:03:10.150Z,3.63
2019-02-12T06:08:11.812Z,3.60
2019-02-12T06:13:13.428Z,3.53
2019-02-12T06:18:14.987Z,3.50
2019-02-12T06:23:16.737Z,3.48
2019-02-12T06:28:18.317Z,3.46
2019-02-12T06:33:19.889Z,3.43
2019-02-12T06:38:21.447Z,3.45
2019-02-12T06:43:23.020Z,3.43
2019-02-12T06:48:24.583Z,3.26
2019-02-12T06:53:26.129Z,3.13
2019-02-12T06:58:27.700Z,3.02
2019-02-12T07:03:52.117Z,2.86
2019-02-12T07:09:11.779Z,2.81
2019-02-12T07:15:11.753Z,2.70
2019-02-12T07:20:53.123Z,2.68
2019-02-12T07:26:01.466Z,2.71
2019-02-12T07:31:59.336Z,2.77
2019-02-12T07:38:01.322Z,2.78
2019-02-12T07:43:30.659Z,2.87
2019-02-12T07:48:45.971Z,2.97
2019-02-12T07:54:16.101Z,3.03
2019-02-12T07:59:43.926Z,3.20
2019-02-12T08:05:32.150Z,3.34
2019-02-12T08:11:14.454Z,3.43
2019-02-12T08:16:57.152Z,3.59
2019-02-12T08:22:34.764Z,3.73
2019-02-12T08:28:15.967Z,3.84
2019-02-12T08:33:52.524Z,3.93
2019-02-12T08:39:31.760Z,3.98
2019-02-12T08:44:51.990Z,4.02
2019-02-12T08:50:23.861Z,4.05
2019-02-12T08:56:09.811Z,4.15
2019-02-12T09:02:01.632Z,4.26
2019-02-12T09:07:43.051Z,4.38
2019-02-12T09:13:17.511Z,4.65
2019-02-12T09:18:55.966Z,4.62
2019-02-12T09:24:23.664Z,4.62
2019-02-12T09:29:47.831Z,4.76
2019-02-12T09:35:26.821Z,4.99
2019-02-12T09:40:58.912Z,5.01
2019-02-12T09:46:29.087Z,5.03
2019-02-12T09:52:30.736Z,5.08
2019-02-12T09:58:01.234Z,5.04
2019-02-12T10:03:28.991Z,5.08
2019-02-12T10:08:40.154Z,5.11
2019-02-12T10:14:09.779Z,5.31
2019-02-12T10:19:38.073Z,5.41
2019-02-12T10:24:59.493Z,5.43
2019-02-12T10:30:37.431Z,5.58
2019-02-12T10:35:39.010Z,5.66
2019-02-12T10:40:40.570Z,5.58
2019-02-12T10:45:42.253Z,5.03
2019-02-12T10:50:43.982Z,5.06
2019-02-12T10:55:45.646Z,5.00
2019-02-12T11:00:47.409Z,4.90
2019-02-12T11:05:48.967Z,5.14
2019-02-12T11:10:50.542Z,5.48
2019-02-12T11:15:52.250Z,5.79
2019-02-12T11:20:53.981Z,5.56
2019-02-12T11:25:55.675Z,5.53
2019-02-12T11:30:57.292Z,5.73
2019-02-12T11:35:58.926Z,5.74
2019-02-12T11:41:00.478Z,5.58
2019-02-12T11:46:03.879Z,5.40
2019-02-12T11:51:05.708Z,5.30
2019-02-12T11:56:07.446Z,5.13
2019-02-12T12:01:13.393Z,4.87
2019-02-12T12:06:15.063Z,4.62
2019-02-12T12:11:16.616Z,4.91
2019-02-12T12:16:18.173Z,5.21
2019-02-12T12:21:19.761Z,5.49
2019-02-12T12:26:21.437Z,5.76
2019-02-12T12:31:23.800Z,5.60
2019-02-12T12:36:25.357Z,6.07
2019-02-12T12:41:26.953Z,6.89
2019-02-12T12:46:28.659Z,7.61
2019-02-12T12:51:30.207Z,11.41
2019-02-12T12:56:31.881Z,7.40
2019-02-12T13:01:33.484Z,6.11
2019-02-12T13:06:35.038Z,5.73
2019-02-12T13:11:36.618Z,5.47
2019-02-12T13:16:38.165Z,5.54
2019-02-12T13:21:39.850Z,5.49
2019-02-12T13:26:41.517Z,5.51
2019-02-12T13:31:43.210Z,5.36
2019-02-12T13:36:44.766Z,5.25
2019-02-12T13:41:46.328Z,5.20
2019-02-12T13:46:47.898Z,4.92
2019-02-12T13:51:49.490Z,4.81
2019-02-12T13:56:51.073Z,5.04
2019-02-12T14:01:52.632Z,5.28
2019-02-12T14:06:54.213Z,5.97
2019-02-12T14:11:55.774Z,5.83
2019-02-12T14:16:57.410Z,5.39
2019-02-12T14:21:58.969Z,5.43
2019-02-12T14:27:00.552Z,6.38
2019-02-12T14:32:02.141Z,6.27
2019-02-12T14:37:03.726Z,6.10
2019-02-12T14:42:05.452Z,6.33
2019-02-12T14:47:07.036Z,5.88
2019-02-12T14:52:08.598Z,5.56
2019-02-12T14:57:10.175Z,5.39
2019-02-12T15:02:11.826Z,5.29
2019-02-12T15:07:13.398Z,5.22
2019-02-12T15:12:14.944Z,5.18
2019-02-12T15:17:16.504Z,5.15
2019-02-12T15:22:18.175Z,5.13
2019-02-12T15:27:19.728Z,5.16
2019-02-12T15:32:21.335Z,5.16
2019-02-12T15:37:22.896Z,5.12
2019-02-12T15:42:24.456Z,5.01
2019-02-12T15:47:26.017Z,4.97
2019-02-12T15:52:27.566Z,4.95
2019-02-12T15:57:29.144Z,4.90
2019-02-12T16:02:32.026Z,4.89
2019-02-12T16:07:34.294Z,4.86
2019-02-12T16:12:35.845Z,4.83
2019-02-12T16:17:39.294Z,4.80
2019-02-12T16:22:40.961Z,4.79
2019-02-12T16:27:42.635Z,4.80
2019-02-12T16:32:44.430Z,4.79
2019-02-12T16:37:46.216Z,4.78
2019-02-12T16:42:51.142Z,4.78
2019-02-12T16:47:52.707Z,4.74
2019-02-12T16:52:54.580Z,4.69
2019-02-12T16:57:56.138Z,4.64
2019-02-12T17:02:57.801Z,4.60
2019-02-12T17:07:59.388Z,4.53
2019-02-12T17:13:00.972Z,4.42
2019-02-12T17:18:03.373Z,4.31
2019-02-12T17:23:04.924Z,4.24
2019-02-12T17:28:06.499Z,4.19
2019-02-12T17:33:08.127Z,4.21
2019-02-12T17:38:09.711Z,4.19
2019-02-12T17:43:11.360Z,4.17
2019-02-12T17:48:12.932Z,4.13
2019-02-12T17:53:15.386Z,4.14
2019-02-12T17:58:16.941Z,4.12
2019-02-12T18:03:18.496Z,4.06
2019-02-12T18:08:20.203Z,4.07
2019-02-12T18:13:23.284Z,4.14
2019-02-12T18:18:24.922Z,4.09
2019-02-12T18:23:26.491Z,4.08
2019-02-12T18:28:28.112Z,4.02
2019-02-12T18:33:29.697Z,3.99
2019-02-12T18:38:31.266Z,3.86
2019-02-12T18:43:32.835Z,3.70
2019-02-12T18:48:34.424Z,3.65
2019-02-12T18:53:35.963Z,3.51
2019-02-12T18:58:37.517Z,3.45
2019-02-12T19:03:39.204Z,3.37
2019-02-12T19:08:40.765Z,3.32
2019-02-12T19:13:42.319Z,3.28
2019-02-12T19:18:43.987Z,3.25
2019-02-12T19:23:45.571Z,3.23
2019-02-12T19:28:47.120Z,3.19
2019-02-12T19:33:48.700Z,3.13
2019-02-12T19:38:50.279Z,3.13
2019-02-12T19:43:51.853Z,3.11
2019-02-12T19:48:54.128Z,3.14
2019-02-12T19:53:55.884Z,3.23
2019-02-12T19:58:57.455Z,3.16
2019-02-12T20:03:58.996Z,3.20
2019-02-12T20:09:00.546Z,3.29
2019-02-12T20:14:02.284Z,3.34
2019-02-12T20:19:03.843Z,3.45
2019-02-12T20:24:05.389Z,3.55
2019-02-12T20:29:06.978Z,3.66
2019-02-12T20:34:08.627Z,3.78
2019-02-12T20:39:10.204Z,3.91
2019-02-12T20:44:11.868Z,3.97
2019-02-12T20:49:13.433Z,3.93
2019-02-12T20:54:14.984Z,3.95
2019-02-12T20:59:16.639Z,3.94
2019-02-12T21:04:18.199Z,3.90
2019-02-12T21:09:19.762Z,3.89
2019-02-12T21:14:21.301Z,3.90
2019-02-12T21:19:22.966Z,3.93
2019-02-12T21:24:24.548Z,3.95
2019-02-12T21:29:26.109Z,3.99
2019-02-12T21:34:27.843Z,4.07
2019-02-12T21:39:29.441Z,4.05
2019-02-12T21:44:30.985Z,4.07
2019-02-12T21:49:32.523Z,4.07
2019-02-12T21:54:34.082Z,4.12
2019-02-12T21:59:35.634Z,4.16
2019-02-12T22:04:37.305Z,4.23
2019-02-12T22:09:38.857Z,4.28
2019-02-12T22:14:40.420Z,4.26
2019-02-12T22:19:42.028Z,4.27
2019-02-12T22:24:43.538Z,4.25
2019-02-12T22:29:45.114Z,4.28
2019-02-12T22:34:46.683Z,4.31
2019-02-12T22:39:48.256Z,4.34
2019-02-12T22:44:49.857Z,4.35
2019-02-12T22:49:51.409Z,4.36
2019-02-12T22:54:52.963Z,4.33
2019-02-12T22:59:54.544Z,4.33
2019-02-12T23:04:56.208Z,4.33
2019-02-12T23:09:57.771Z,4.32
2019-02-12T23:14:59.362Z,4.32
2019-02-12T23:20:00.957Z,4.29
2019-02-12T23:25:03.066Z,4.31
2019-02-12T23:30:05.308Z,4.27
2019-02-12T23:35:06.995Z,4.25
2019-02-12T23:40:08.668Z,4.23
2019-02-12T23:45:10.329Z,4.22
2019-02-12T23:50:12.404Z,4.18
2019-02-12T23:55:13.995Z,4.17
